createdAt,value
2022-11-28T00:00:03.295Z,5.90
2022-11-28T00:03:37.447Z,5.83
2022-11-28T00:07:01.255Z,5.90
2022-11-28T00:10:24.849Z,5.93
2022-11-28T00:13:48.548Z,5.83
2022-11-28T00:17:12.087Z,6.83
2022-11-28T00:20:37.101Z,7.07
2022-11-28T00:24:01.733Z,5.80
2022-11-28T00:27:25.301Z,6.67
2022-11-28T00:30:48.848Z,6.70
2022-11-28T00:34:14.253Z,6.27
2022-11-28T00:37:39.219Z,6.57
2022-11-28T00:41:04.396Z,6.50
2022-11-28T00:44:27.963Z,6.40
2022-11-28T00:47:51.546Z,5.07
2022-11-28T00:51:18.154Z,6.23
2022-11-28T00:54:43.524Z,6.30
2022-11-28T00:58:07.475Z,5.90
2022-11-28T01:01:33.515Z,6.90
2022-11-28T01:04:57.201Z,7.40
2022-11-28T01:08:20.802Z,6.47
2022-11-28T01:11:46.768Z,5.87
2022-11-28T01:15:12.760Z,5.13
2022-11-28T01:18:36.647Z,5.53
2022-11-28T01:22:00.445Z,5.77
2022-11-28T01:25:24.146Z,6.00
2022-11-28T01:28:49.885Z,6.60
2022-11-28T01:32:13.445Z,4.87
2022-11-28T01:35:37.228Z,5.97
2022-11-28T01:39:00.761Z,5.50
2022-11-28T01:42:24.462Z,5.77
2022-11-28T01:45:49.564Z,5.67
2022-11-28T01:49:16.951Z,5.93
2022-11-28T01:52:43.895Z,7.97
2022-11-28T01:56:12.708Z,6.00
2022-11-28T01:59:42.948Z,5.03
2022-11-28T02:03:12.509Z,7.00
2022-11-28T02:06:37.160Z,7.00
2022-11-28T02:10:01.811Z,7.13
2022-11-28T02:13:36.991Z,7.10
2022-11-28T02:17:14.877Z,7.47
2022-11-28T02:21:07.022Z,7.83
2022-11-28T02:24:53.426Z,8.00
2022-11-28T02:28:58.959Z,6.80
2022-11-28T02:32:46.951Z,7.77
2022-11-28T02:36:15.853Z,7.10
2022-11-28T02:39:47.763Z,7.83
2022-11-28T02:43:18.048Z,7.30
2022-11-28T02:46:48.610Z,7.27
2022-11-28T02:50:19.941Z,7.17
2022-11-28T02:53:46.732Z,7.20
2022-11-28T02:57:10.804Z,6.87
2022-11-28T03:00:36.801Z,6.90
2022-11-28T03:04:17.518Z,5.60
2022-11-28T03:07:58.558Z,7.27
2022-11-28T03:11:35.858Z,6.70
2022-11-28T03:15:02.985Z,7.00
2022-11-28T03:18:33.080Z,7.97
2022-11-28T03:22:05.410Z,5.67
2022-11-28T03:25:35.332Z,8.37
2022-11-28T03:29:03.366Z,6.80
2022-11-28T03:32:32.908Z,7.90
2022-11-28T03:36:01.958Z,7.80
2022-11-28T03:39:30.955Z,8.40
2022-11-28T03:43:01.527Z,7.53
2022-11-28T03:46:32.623Z,8.33
2022-11-28T03:50:01.323Z,8.10
2022-11-28T03:53:30.669Z,6.90
2022-11-28T03:57:02.151Z,7.80
2022-11-28T04:00:27.601Z,8.50
2022-11-28T04:03:55.981Z,8.20
2022-11-28T04:07:28.477Z,7.93
2022-11-28T04:10:57.574Z,7.57
2022-11-28T04:14:26.082Z,8.07
2022-11-28T04:17:58.465Z,7.80
2022-11-28T04:21:28.648Z,8.17
2022-11-28T04:24:56.064Z,8.00
2022-11-28T04:28:24.294Z,8.60
2022-11-28T04:31:51.787Z,7.73
2022-11-28T04:35:21.596Z,6.83
2022-11-28T04:38:54.224Z,8.03
2022-11-28T04:42:21.666Z,8.07
2022-11-28T04:45:48.720Z,8.10
2022-11-28T04:49:12.914Z,8.13
2022-11-28T04:52:43.324Z,7.53
2022-11-28T04:56:12.633Z,8.03
2022-11-28T04:59:36.607Z,6.60
2022-11-28T05:03:00.368Z,7.10
2022-11-28T05:06:27.319Z,8.13
2022-11-28T05:09:52.647Z,6.93
2022-11-28T05:13:16.562Z,8.13
2022-11-28T05:16:40.264Z,7.00
2022-11-28T05:20:04.001Z,7.10
2022-11-28T05:23:27.601Z,6.50
2022-11-28T05:26:52.584Z,7.43
2022-11-28T05:30:16.625Z,7.27
2022-11-28T05:33:40.429Z,7.10
2022-11-28T05:37:04.363Z,6.30
2022-11-28T05:40:28.104Z,7.10
2022-11-28T05:43:53.644Z,7.07
2022-11-28T05:47:17.255Z,7.17
2022-11-28T05:50:41.601Z,7.43
2022-11-28T05:54:05.444Z,7.03
2022-11-28T05:57:29.990Z,6.33
2022-11-28T06:00:54.996Z,7.70
2022-11-28T06:04:18.759Z,7.17
2022-11-28T06:07:42.459Z,7.10
2022-11-28T06:11:06.386Z,7.77
2022-11-28T06:14:30.023Z,7.07
2022-11-28T06:17:55.066Z,7.53
2022-11-28T06:21:18.766Z,7.67
2022-11-28T06:24:42.466Z,6.70
2022-11-28T06:28:06.149Z,6.20
2022-11-28T06:31:30.981Z,7.03
2022-11-28T06:34:55.969Z,7.30
2022-11-28T06:38:19.752Z,6.93
2022-11-28T06:41:43.637Z,7.70
2022-11-28T06:45:10.827Z,7.63
2022-11-28T06:48:34.445Z,7.10
2022-11-28T06:51:59.428Z,8.90
2022-11-28T06:55:23.045Z,8.33
2022-11-28T06:58:47.282Z,8.43
2022-11-28T07:02:11.941Z,8.07
2022-11-28T07:05:35.543Z,8.47
2022-11-28T07:09:00.590Z,8.53
2022-11-28T07:12:24.200Z,8.57
2022-11-28T07:15:50.203Z,8.23
2022-11-28T07:19:14.046Z,9.00
2022-11-28T07:22:37.598Z,7.60
2022-11-28T07:26:04.959Z,8.90
2022-11-28T07:29:35.973Z,8.60
2022-11-28T07:32:59.790Z,8.90
2022-11-28T07:36:27.494Z,7.70
2022-11-28T07:39:51.213Z,9.27
2022-11-28T07:43:16.211Z,9.00
2022-11-28T07:46:40.728Z,8.30
2022-11-28T07:50:05.178Z,8.63
2022-11-28T07:53:29.090Z,8.50
2022-11-28T08:00:37.875Z,8.73
2022-11-28T08:04:01.851Z,9.77
2022-11-28T08:07:25.706Z,8.80
2022-11-28T08:10:49.500Z,8.97
2022-11-28T08:14:14.145Z,10.30
2022-11-28T08:17:39.171Z,9.50
2022-11-28T08:21:07.326Z,9.10
2022-11-28T08:24:31.011Z,8.50
2022-11-28T08:27:54.560Z,9.03
2022-11-28T08:31:20.232Z,8.80
2022-11-28T08:34:45.467Z,8.60
2022-11-28T08:38:09.059Z,9.47
2022-11-28T08:41:32.660Z,8.40
2022-11-28T08:44:56.268Z,9.33
2022-11-28T08:48:19.985Z,9.90
2022-11-28T08:51:46.149Z,8.37
2022-11-28T08:55:10.621Z,8.33
2022-11-28T08:58:34.218Z,8.43
2022-11-28T09:01:57.843Z,8.73
2022-11-28T09:05:21.605Z,9.07
2022-11-28T09:08:47.238Z,8.00
2022-11-28T09:12:10.860Z,6.80
2022-11-28T09:15:34.672Z,8.20
2022-11-28T09:18:59.282Z,8.90
2022-11-28T09:22:23.037Z,8.40
2022-11-28T09:25:48.297Z,7.73
2022-11-28T09:29:12.169Z,8.30
2022-11-28T09:32:36.672Z,11.00
2022-11-28T09:36:00.939Z,9.87
2022-11-28T09:39:25.840Z,8.80
2022-11-28T09:42:51.490Z,9.87
2022-11-28T09:46:27.047Z,9.13
2022-11-28T09:49:56.142Z,8.80
2022-11-28T09:53:27.796Z,8.63
2022-11-28T09:56:52.445Z,9.73
2022-11-28T10:00:19.177Z,10.53
2022-11-28T10:03:53.243Z,9.53
2022-11-28T10:07:22.005Z,10.53
2022-11-28T10:10:55.505Z,11.27
2022-11-28T10:14:45.467Z,10.10
2022-11-28T10:18:25.732Z,10.40
2022-11-28T10:21:59.249Z,11.90
2022-11-28T10:25:27.833Z,10.37
2022-11-28T10:28:54.357Z,9.70
2022-11-28T10:32:21.915Z,9.00
2022-11-28T10:35:49.534Z,10.90
2022-11-28T10:39:15.670Z,9.50
2022-11-28T10:42:46.066Z,9.93
2022-11-28T10:46:38.375Z,7.67
2022-11-28T10:50:07.965Z,9.23
2022-11-28T10:53:45.030Z,9.57
2022-11-28T10:57:13.652Z,9.47
2022-11-28T11:00:39.262Z,8.73
2022-11-28T11:04:03.948Z,9.13
2022-11-28T11:07:30.755Z,9.87
2022-11-28T11:11:02.399Z,8.40
2022-11-28T11:14:35.650Z,9.50
2022-11-28T11:18:02.198Z,9.80
2022-11-28T11:21:27.291Z,9.73
2022-11-28T11:25:07.289Z,7.70
2022-11-28T11:28:41.508Z,9.33
2022-11-28T11:32:07.982Z,8.70
2022-11-28T11:35:35.771Z,8.10
2022-11-28T11:39:22.526Z,9.23
2022-11-28T11:42:54.512Z,8.83
2022-11-28T11:46:18.488Z,9.20
2022-11-28T11:49:45.670Z,8.70
2022-11-28T11:53:14.699Z,11.33
2022-11-28T11:56:41.302Z,10.30
2022-11-28T12:00:07.917Z,9.70
2022-11-28T12:03:41.645Z,9.47
2022-11-28T12:07:16.587Z,10.90
2022-11-28T12:10:47.427Z,10.17
2022-11-28T12:14:27.987Z,10.33
2022-11-28T12:18:04.320Z,9.70
2022-11-28T12:21:33.607Z,9.40
2022-11-28T12:25:10.558Z,10.83
2022-11-28T12:28:51.103Z,11.47
2022-11-28T12:32:25.797Z,9.80
2022-11-28T12:36:05.444Z,10.90
2022-11-28T12:39:39.636Z,9.70
2022-11-28T12:43:16.895Z,11.03
2022-11-28T12:46:48.630Z,11.10
2022-11-28T12:50:25.257Z,11.20
2022-11-28T12:54:02.776Z,11.13
2022-11-28T12:57:37.014Z,10.57
2022-11-28T13:01:13.592Z,11.30
2022-11-28T13:04:54.174Z,10.43
2022-11-28T13:08:43.315Z,10.10
2022-11-28T13:12:21.534Z,10.23
2022-11-28T13:16:00.565Z,10.97
2022-11-28T13:19:45.040Z,10.30
2022-11-28T13:23:19.179Z,10.80
2022-11-28T13:26:50.788Z,9.80
2022-11-28T13:30:20.406Z,9.53
2022-11-28T13:33:50.843Z,11.83
2022-11-28T13:41:28.436Z,10.33
2022-11-28T13:45:00.334Z,10.37
2022-11-28T13:49:13.795Z,11.37
2022-11-28T13:52:43.888Z,10.10
2022-11-28T13:56:25.789Z,10.53
2022-11-28T13:59:55.550Z,11.00
2022-11-28T14:03:21.069Z,11.73
2022-11-28T14:06:47.207Z,11.73
2022-11-28T14:10:31.558Z,12.03
2022-11-28T14:14:05.536Z,10.07
2022-11-28T14:17:44.709Z,12.57
2022-11-28T14:21:20.937Z,10.70
2022-11-28T14:24:57.968Z,11.20
2022-11-28T14:28:26.468Z,12.20
2022-11-28T14:32:21.699Z,12.37
2022-11-28T14:36:03.079Z,11.90
2022-11-28T14:39:35.748Z,11.13
2022-11-28T14:43:28.183Z,12.00
2022-11-28T14:47:08.041Z,11.40
2022-11-28T14:50:48.558Z,10.10
2022-11-28T14:54:23.036Z,11.70
2022-11-28T14:57:58.991Z,13.03
2022-11-28T15:01:37.146Z,12.70
2022-11-28T15:05:19.052Z,12.23
2022-11-28T15:09:00.122Z,11.23
2022-11-28T15:12:29.749Z,10.80
2022-11-28T15:15:54.339Z,10.33
2022-11-28T15:19:24.382Z,11.93
2022-11-28T15:22:48.237Z,12.43
2022-11-28T15:26:21.262Z,11.90
2022-11-28T15:29:54.947Z,10.67
2022-11-28T15:33:19.411Z,10.97
2022-11-28T15:36:44.860Z,14.07
2022-11-28T15:40:21.150Z,11.57
2022-11-28T15:43:47.169Z,13.40
2022-11-28T15:47:19.149Z,13.53
2022-11-28T15:50:52.074Z,12.63
2022-11-28T15:54:35.239Z,13.00
2022-11-28T15:58:20.197Z,13.87
2022-11-28T16:01:44.264Z,12.67
2022-11-28T16:05:15.870Z,12.70
2022-11-28T16:08:48.472Z,14.33
2022-11-28T16:12:16.491Z,12.07
2022-11-28T16:15:42.147Z,12.47
2022-11-28T16:19:22.112Z,15.40
2022-11-28T16:22:47.238Z,12.10
2022-11-28T16:26:24.992Z,11.70
2022-11-28T16:29:50.306Z,12.37
2022-11-28T16:33:39.844Z,13.57
2022-11-28T16:37:11.791Z,11.70
2022-11-28T16:40:37.058Z,12.67
2022-11-28T16:44:03.781Z,12.13
2022-11-28T16:47:33.470Z,11.20
2022-11-28T16:51:33.992Z,12.57
2022-11-28T16:55:01.169Z,13.67
2022-11-28T16:58:25.999Z,12.47
2022-11-28T17:01:53.129Z,14.03
2022-11-28T17:05:18.391Z,12.27
2022-11-28T17:08:42.017Z,13.60
2022-11-28T17:12:07.972Z,13.03
2022-11-28T17:15:31.840Z,12.63
2022-11-28T17:18:55.428Z,12.80
2022-11-28T17:22:23.210Z,13.50
2022-11-28T17:25:47.200Z,13.33
2022-11-28T17:29:12.278Z,13.20
2022-11-28T17:32:36.028Z,13.60
2022-11-28T17:36:01.110Z,13.57
2022-11-28T17:39:27.340Z,12.23
2022-11-28T17:42:50.938Z,14.30
2022-11-28T17:46:14.582Z,14.03
2022-11-28T17:49:43.082Z,12.40
2022-11-28T17:53:10.775Z,13.83
2022-11-28T17:56:35.754Z,14.03
2022-11-28T18:00:00.620Z,12.63
2022-11-28T18:03:24.330Z,13.97
2022-11-28T18:06:49.125Z,14.20
2022-11-28T18:10:13.432Z,13.30
2022-11-28T18:13:38.703Z,13.53
2022-11-28T18:17:02.388Z,13.70
2022-11-28T18:20:28.488Z,14.97
2022-11-28T18:23:52.220Z,14.40
2022-11-28T18:27:15.995Z,14.37
2022-11-28T18:30:43.986Z,14.50
2022-11-28T18:34:10.176Z,15.53
2022-11-28T18:37:33.879Z,15.57
2022-11-28T18:40:57.564Z,17.80
2022-11-28T18:44:22.440Z,18.33
2022-11-28T18:47:48.256Z,17.83
2022-11-28T18:51:13.136Z,15.93
2022-11-28T18:54:38.365Z,16.57
2022-11-28T18:58:02.035Z,18.57
2022-11-28T19:01:28.367Z,17.93
2022-11-28T19:04:53.571Z,16.17
2022-11-28T19:08:17.449Z,17.87
2022-11-28T19:11:42.088Z,17.47
2022-11-28T19:15:07.783Z,16.40
2022-11-28T19:18:32.832Z,16.37
2022-11-28T19:21:58.631Z,16.30
2022-11-28T19:25:22.669Z,16.43
2022-11-28T19:28:46.977Z,16.33
2022-11-28T19:32:10.908Z,15.77
2022-11-28T19:35:34.879Z,15.43
2022-11-28T19:39:00.470Z,15.97
2022-11-28T19:42:25.789Z,16.33
2022-11-28T19:45:56.752Z,13.73
2022-11-28T19:49:26.476Z,14.73
2022-11-28T19:52:52.802Z,15.57
2022-11-28T19:56:25.280Z,16.00
2022-11-28T20:00:16.105Z,15.17
2022-11-28T20:03:49.799Z,16.77
2022-11-28T20:07:14.136Z,15.47
2022-11-28T20:10:40.510Z,14.10
2022-11-28T20:14:10.855Z,16.87
2022-11-28T20:17:43.773Z,14.50
2022-11-28T20:21:11.912Z,15.13
2022-11-28T20:24:49.809Z,17.00
2022-11-28T20:28:14.174Z,15.87
2022-11-28T20:31:46.199Z,17.17
2022-11-28T20:35:12.738Z,14.63
2022-11-28T20:38:39.401Z,13.60
2022-11-28T20:42:03.013Z,14.17
2022-11-28T20:45:29.081Z,14.40
2022-11-28T20:48:59.556Z,13.53
2022-11-28T20:52:28.161Z,13.17
2022-11-28T20:56:01.821Z,14.47
2022-11-28T20:59:26.659Z,16.10
2022-11-28T21:02:54.932Z,14.40
2022-11-28T21:06:23.271Z,14.47
2022-11-28T21:09:49.504Z,15.67
2022-11-28T21:13:18.478Z,18.10
2022-11-28T21:16:52.462Z,16.70
2022-11-28T21:20:18.524Z,16.80
2022-11-28T21:23:50.940Z,15.03
2022-11-28T21:27:14.950Z,16.00
2022-11-28T21:30:46.105Z,16.93
2022-11-28T21:34:22.347Z,18.30
2022-11-28T21:37:47.346Z,16.40
2022-11-28T21:41:14.636Z,18.20
2022-11-28T21:44:39.204Z,17.43
2022-11-28T21:48:03.967Z,17.67
2022-11-28T21:51:28.493Z,17.70
2022-11-28T21:54:53.548Z,17.20
2022-11-28T21:58:21.208Z,17.67
2022-11-28T22:01:48.928Z,17.27
2022-11-28T22:05:12.494Z,18.70
2022-11-28T22:08:36.562Z,18.10
2022-11-28T22:12:00.201Z,19.87
2022-11-28T22:15:25.364Z,19.37
2022-11-28T22:18:51.222Z,20.60
2022-11-28T22:22:15.422Z,20.40
2022-11-28T22:25:41.843Z,20.13
2022-11-28T22:29:05.644Z,20.27
2022-11-28T22:32:30.869Z,21.50
2022-11-28T22:35:54.686Z,22.80
2022-11-28T22:39:18.533Z,19.93
2022-11-28T22:42:42.309Z,20.40
2022-11-28T22:46:07.080Z,21.07
2022-11-28T22:49:32.200Z,20.50
2022-11-28T22:52:55.882Z,19.00
2022-11-28T22:56:19.715Z,18.80
2022-11-28T22:59:43.268Z,19.20
2022-11-28T23:03:07.021Z,20.53
2022-11-28T23:06:34.246Z,17.70
2022-11-28T23:09:58.111Z,19.80
2022-11-28T23:13:21.700Z,19.20
2022-11-28T23:16:46.365Z,21.30
2022-11-28T23:20:11.096Z,20.27
2022-11-28T23:23:36.793Z,20.63
2022-11-28T23:27:00.430Z,19.97
2022-11-28T23:30:25.330Z,20.43
2022-11-28T23:33:49.827Z,18.93
2022-11-28T23:37:13.324Z,21.67
2022-11-28T23:40:38.250Z,23.03
2022-11-28T23:44:01.868Z,22.00
2022-11-28T23:47:25.425Z,23.17
2022-11-28T23:50:49.032Z,26.10
2022-11-28T23:54:13.256Z,24.23
2022-11-28T23:57:38.106Z,24.07
